Time;durP1;ratioP1;P1;durP2;ratioP2;P2;SDS_P1;SDS_P2;PMS_P1;PMS_P2;Temp;Humidity;BMP_temperature;BMP_pressure;BME280_temperature;BME280_humidity;BME280_pressure;Samples;Min_cycle;Max_cycle;Signal;HPM_P1;HPM_P2
2022/10/28 00:01:07;;;;;;;38.08;11.40;;;18.70;89.70;;;;;;5034790;28;20032;-71
2022/10/28 00:03:37;;;;;;;33.88;11.63;;;18.70;90.00;;;;;;5034855;28;20026;-69
2022/10/28 00:06:05;;;;;;;30.55;10.68;;;18.80;90.10;;;;;;5034578;28;20028;-71
2022/10/28 00:08:31;;;;;;;31.50;11.55;;;18.70;90.10;;;;;;5034690;28;20164;-70
2022/10/28 00:11:27;;;;;;;30.05;11.63;;;18.70;90.20;;;;;;5034468;28;20045;-70
2022/10/28 00:13:55;;;;;;;33.15;11.40;;;18.70;90.30;;;;;;5017977;28;20115;-70
2022/10/28 00:16:23;;;;;;;38.88;12.50;;;18.70;90.30;;;;;;5034472;28;20029;-71
2022/10/28 00:18:52;;;;;;;32.50;11.75;;;18.70;90.40;;;;;;5032565;28;20390;-69
2022/10/28 00:21:21;;;;;;;31.60;11.88;;;18.60;90.40;;;;;;5032385;28;20105;-68
2022/10/28 00:23:47;;;;;;;31.48;12.60;;;18.60;90.50;;;;;;5033930;28;20474;-70
2022/10/28 00:26:15;;;;;;;25.00;11.32;;;18.60;90.60;;;;;;5032839;28;20029;-72
2022/10/28 00:28:44;;;;;;;28.15;12.65;;;18.60;90.70;;;;;;5034267;28;20027;-69
2022/10/28 00:31:11;;;;;;;35.83;11.88;;;18.50;90.60;;;;;;5034399;28;20443;-71
2022/10/28 00:33:37;;;;;;;29.05;12.48;;;18.50;90.70;;;;;;5034227;28;20026;-68
2022/10/28 00:36:19;;;;;;;29.35;12.07;;;18.50;90.70;;;;;;5032712;28;20021;-74
2022/10/28 00:38:47;;;;;;;32.63;11.73;;;18.50;90.90;;;;;;5034084;28;20381;-74
2022/10/28 00:41:20;;;;;;;28.73;12.10;;;18.40;90.60;;;;;;5034502;28;20036;-72
2022/10/28 00:43:52;;;;;;;29.90;11.70;;;18.40;90.70;;;;;;5034081;28;20033;-73
2022/10/28 00:46:37;;;;;;;27.23;10.52;;;18.40;90.50;;;;;;5034241;28;20025;-71
2022/10/28 00:49:11;;;;;;;31.00;10.98;;;18.30;90.40;;;;;;5034229;28;20041;-71
2022/10/28 00:51:38;;;;;;;30.92;10.98;;;18.30;90.40;;;;;;5033637;28;20084;-71
2022/10/28 00:54:04;;;;;;;28.27;10.65;;;18.30;90.80;;;;;;5034034;28;20502;-71
2022/10/28 00:56:35;;;;;;;34.95;11.63;;;18.30;90.40;;;;;;5033675;28;20057;-71
2022/10/28 00:59:06;;;;;;;26.98;10.75;;;18.30;90.40;;;;;;5033490;28;20054;-71
2022/10/28 01:01:32;;;;;;;33.47;11.38;;;18.30;90.30;;;;;;5033507;28;20021;-71
2022/10/28 01:03:59;;;;;;;23.67;10.55;;;18.30;90.40;;;;;;5033596;28;20475;-71
2022/10/28 01:06:27;;;;;;;28.55;10.02;;;18.30;90.20;;;;;;5033695;28;20454;-75
2022/10/28 01:08:53;;;;;;;29.42;11.07;;;18.20;90.10;;;;;;5033292;28;20041;-74
2022/10/28 01:11:37;;;;;;;28.10;10.32;;;18.20;90.10;;;;;;5033185;28;20067;-72
2022/10/28 01:14:02;;;;;;;;;;;18.10;90.10;;;;;;5033807;28;20104;-73
2022/10/28 01:16:35;;;;;;;26.38;9.70;;;18.10;90.00;;;;;;5033439;28;20274;-72
2022/10/28 01:19:22;;;;;;;27.42;10.15;;;18.10;90.10;;;;;;5033446;28;20018;-74
2022/10/28 01:22:04;;;;;;;27.05;9.93;;;18.10;89.90;;;;;;5033157;28;20029;-75
2022/10/28 01:24:51;;;;;;;22.55;10.07;;;18.10;89.80;;;;;;5033323;28;20029;-74
2022/10/28 01:27:32;;;;;;;23.67;8.57;;;18.10;89.60;;;;;;5033245;28;20474;-74
2022/10/28 01:30:09;;;;;;;26.98;9.88;;;18.10;89.60;;;;;;5033350;28;20057;-73
2022/10/28 01:32:47;;;;;;;30.40;9.60;;;18.00;89.10;;;;;;5033120;28;20033;-73
2022/10/28 01:35:45;;;;;;;22.70;9.98;;;18.10;89.60;;;;;;5033074;28;20022;-70
2022/10/28 01:38:33;;;;;;;22.60;9.73;;;18.10;89.50;;;;;;5021209;28;20143;-73
2022/10/28 01:41:15;;;;;;;23.88;9.10;;;18.00;89.60;;;;;;5032906;28;20052;-73
2022/10/28 01:44:05;;;;;;;30.25;9.68;;;18.00;89.40;;;;;;5033013;28;20025;-74
2022/10/28 01:46:42;;;;;;;24.88;9.77;;;18.00;89.70;;;;;;5032757;28;20494;-73
2022/10/28 01:49:18;;;;;;;37.83;10.20;;;18.00;89.20;;;;;;5032984;28;20033;-75
2022/10/28 01:51:48;;;;;;;26.98;9.43;;;18.00;89.30;;;;;;5033724;28;20470;-74
2022/10/28 01:54:19;;;;;;;33.85;9.68;;;18.00;89.30;;;;;;5033753;28;20025;-75
2022/10/28 01:56:47;;;;;;;23.02;9.50;;;18.00;89.40;;;;;;5032802;28;20158;-72
2022/10/28 01:59:27;;;;;;;20.92;8.98;;;17.90;89.90;;;;;;5032566;28;20053;-72
2022/10/28 02:01:54;;;;;;;29.98;10.00;;;18.00;89.60;;;;;;5032822;28;20036;-73
2022/10/28 02:04:20;;;;;;;27.23;10.30;;;17.90;89.30;;;;;;5032851;28;20052;-71
2022/10/28 02:06:50;;;;;;;36.47;10.95;;;18.00;89.50;;;;;;5032831;28;20053;-71
2022/10/28 02:09:42;;;;;;;37.30;10.65;;;17.90;89.40;;;;;;5032842;28;20017;-74
2022/10/28 02:12:19;;;;;;;27.23;9.27;;;17.90;89.80;;;;;;5033058;28;20464;-73
2022/10/28 02:15:00;;;;;;;28.13;9.68;;;17.90;89.50;;;;;;5031302;28;20381;-70
2022/10/28 02:17:48;;;;;;;34.10;10.25;;;17.90;89.80;;;;;;5032664;28;20018;-70
2022/10/28 02:20:35;;;;;;;31.55;9.95;;;17.90;89.90;;;;;;5032863;28;20030;-71
2022/10/28 02:23:03;;;;;;;30.65;9.75;;;17.90;90.30;;;;;;5032661;28;20105;-74
2022/10/28 02:25:40;;;;;;;28.08;9.63;;;17.90;90.00;;;;;;5032543;28;20033;-75
2022/10/28 02:28:09;;;;;;;28.33;8.73;;;17.90;89.60;;;;;;5032600;28;20022;-74
2022/10/28 02:30:43;;;;;;;24.80;9.85;;;17.80;89.60;;;;;;5032611;28;20031;-75
2022/10/28 02:33:13;;;;;;;32.63;9.82;;;17.80;89.70;;;;;;5032367;28;20117;-74
2022/10/28 02:35:48;;;;;;;24.92;9.45;;;17.80;89.60;;;;;;5032390;28;20030;-74
2022/10/28 02:38:18;;;;;;;23.38;9.65;;;17.70;89.80;;;;;;5032603;28;20036;-75
2022/10/28 02:40:51;;;;;;;28.58;9.93;;;17.70;89.80;;;;;;5032656;28;20030;-76
2022/10/28 02:43:19;;;;;;;28.98;9.68;;;17.70;89.90;;;;;;5033121;28;20109;-72
2022/10/28 02:45:49;;;;;;;25.05;9.50;;;17.70;90.00;;;;;;5036270;28;20057;-69
2022/10/28 02:48:20;;;;;;;29.80;10.05;;;17.60;89.70;;;;;;5036243;28;20010;-69
2022/10/28 02:50:53;;;;;;;21.27;8.55;;;17.60;89.70;;;;;;5036358;28;20057;-71
2022/10/28 02:53:25;;;;;;;27.60;9.43;;;17.60;89.70;;;;;;5034782;28;20037;-69
2022/10/28 02:55:54;;;;;;;28.35;8.25;;;17.60;89.60;;;;;;5035794;28;20107;-70
2022/10/28 02:58:20;;;;;;;28.40;9.15;;;17.60;89.50;;;;;;5035883;28;20064;-74
2022/10/28 03:00:46;;;;;;;32.10;9.20;;;17.60;90.00;;;;;;5034412;28;20040;-72
2022/10/28 03:03:13;;;;;;;20.85;9.23;;;17.60;89.50;;;;;;5035690;28;20021;-73
2022/10/28 03:05:38;;;;;;;23.05;8.52;;;17.50;89.50;;;;;;5035769;28;20175;-73
2022/10/28 03:08:05;;;;;;;25.48;8.90;;;17.50;89.50;;;;;;5035674;28;20045;-73
2022/10/28 03:10:30;;;;;;;26.90;9.02;;;17.50;89.60;;;;;;5035863;28;20036;-70
2022/10/28 03:12:56;;;;;;;40.13;9.68;;;17.50;89.50;;;;;;5035502;28;20116;-72
2022/10/28 03:15:22;;;;;;;30.70;8.43;;;17.50;89.50;;;;;;5035576;28;20421;-72
2022/10/28 03:17:47;;;;;;;30.33;9.20;;;17.50;89.30;;;;;;5035658;28;20437;-73
2022/10/28 03:20:13;;;;;;;21.08;7.70;;;17.40;89.00;;;;;;5035629;28;20067;-74
2022/10/28 03:22:43;;;;;;;27.85;8.95;;;17.40;89.10;;;;;;5035524;28;20467;-75
2022/10/28 03:25:08;;;;;;;26.95;8.52;;;17.50;89.30;;;;;;5035169;28;20021;-71
2022/10/28 03:27:34;;;;;;;22.05;8.30;;;17.50;88.90;;;;;;5035603;28;20374;-72
2022/10/28 03:30:00;;;;;;;26.58;8.63;;;17.40;88.80;;;;;;5035647;28;20032;-71
2022/10/28 03:32:26;;;;;;;27.20;8.55;;;17.40;88.80;;;;;;5035059;28;20033;-70
2022/10/28 03:34:51;;;;;;;28.00;8.13;;;17.40;89.40;;;;;;5035364;28;20482;-72
2022/10/28 03:37:17;;;;;;;29.83;8.93;;;17.40;88.90;;;;;;5034837;28;20032;-70
2022/10/28 03:39:43;;;;;;;28.10;8.60;;;17.40;88.80;;;;;;5035000;28;20096;-70
2022/10/28 03:42:08;;;;;;;23.65;9.23;;;17.40;88.90;;;;;;5035128;28;20084;-76
2022/10/28 03:44:34;;;;;;;29.85;9.20;;;17.40;88.90;;;;;;5035325;28;20022;-71
2022/10/28 03:47:00;;;;;;;22.55;8.55;;;17.40;89.00;;;;;;5034920;28;20024;-74
2022/10/28 03:49:25;;;;;;;28.50;8.40;;;17.40;88.90;;;;;;5034721;28;20025;-72
2022/10/28 03:51:51;;;;;;;29.38;8.70;;;17.40;88.90;;;;;;5034561;28;20120;-70
2022/10/28 03:54:17;;;;;;;21.88;8.55;;;17.40;89.10;;;;;;5033562;28;20029;-70
2022/10/28 03:56:42;;;;;;;30.23;8.20;;;17.40;88.90;;;;;;5034709;28;20425;-70
2022/10/28 03:59:09;;;;;;;25.30;8.55;;;17.40;89.00;;;;;;5034476;28;20081;-69
2022/10/28 04:01:34;;;;;;;24.85;9.18;;;17.40;89.10;;;;;;5034662;28;20017;-70
2022/10/28 04:04:00;;;;;;;23.75;8.23;;;17.40;89.00;;;;;;5034696;28;20049;-73
2022/10/28 04:06:26;;;;;;;27.20;8.73;;;17.30;88.90;;;;;;5034363;28;20032;-73
2022/10/28 04:08:52;;;;;;;20.65;8.30;;;17.30;88.90;;;;;;5034475;28;20036;-73
2022/10/28 04:11:17;;;;;;;29.55;9.13;;;17.40;88.90;;;;;;5034420;28;20113;-74
2022/10/28 04:13:43;;;;;;;26.25;8.57;;;17.40;89.10;;;;;;5034410;28;20548;-72
2022/10/28 04:16:09;;;;;;;28.33;9.35;;;17.40;89.00;;;;;;5032935;28;20040;-73
2022/10/28 04:18:34;;;;;;;22.90;8.68;;;17.40;88.90;;;;;;5034641;28;20055;-69
2022/10/28 04:21:01;;;;;;;28.15;9.38;;;17.30;88.80;;;;;;5034187;28;20029;-71
2022/10/28 04:23:26;;;;;;;26.92;9.18;;;17.30;88.90;;;;;;5034289;28;20029;-69
2022/10/28 04:25:53;;;;;;;24.30;8.70;;;17.30;88.80;;;;;;5034335;28;20025;-71
2022/10/28 04:28:22;;;;;;;27.33;8.35;;;17.30;89.00;;;;;;5033156;28;20080;-69
2022/10/28 04:30:48;;;;;;;25.42;8.32;;;17.20;88.80;;;;;;5034294;28;20394;-75
2022/10/28 04:33:14;;;;;;;21.73;7.88;;;17.20;88.80;;;;;;5034222;28;20037;-75
2022/10/28 04:35:41;;;;;;;26.58;8.25;;;17.20;88.90;;;;;;5034511;28;20025;-73
2022/10/28 04:38:10;;;;;;;24.17;8.40;;;17.20;88.90;;;;;;5033794;28;20028;-73
2022/10/28 04:40:36;;;;;;;24.30;8.57;;;17.20;89.30;;;;;;5034092;28;20036;-71
2022/10/28 04:43:02;;;;;;;30.90;9.13;;;17.10;89.00;;;;;;5034012;28;20096;-73
2022/10/28 04:45:28;;;;;;;26.30;8.10;;;17.10;89.00;;;;;;5033778;28;20037;-70
2022/10/28 04:47:58;;;;;;;26.63;9.13;;;17.10;89.10;;;;;;5033982;28;20021;-70
2022/10/28 04:50:23;;;;;;;23.52;8.32;;;17.00;88.90;;;;;;5033731;28;20029;-72
2022/10/28 04:52:49;;;;;;;28.60;9.27;;;17.00;89.20;;;;;;5033621;28;20041;-69
2022/10/28 04:55:15;;;;;;;32.47;9.25;;;17.00;89.40;;;;;;5033717;28;20030;-69
2022/10/28 04:57:40;;;;;;;26.88;8.50;;;17.00;89.40;;;;;;5032280;28;20149;-74
2022/10/28 05:00:07;;;;;;;29.38;9.60;;;17.00;89.20;;;;;;5033613;28;20414;-70
2022/10/28 05:02:33;;;;;;;26.42;8.50;;;17.00;89.50;;;;;;5033477;28;20491;-70
2022/10/28 05:05:02;;;;;;;24.65;8.43;;;16.90;89.40;;;;;;5033475;28;20060;-74
2022/10/28 05:07:28;;;;;;;33.50;9.10;;;16.90;89.90;;;;;;5033518;28;20033;-75
2022/10/28 05:09:53;;;;;;;27.75;8.05;;;16.90;89.40;;;;;;5033546;28;20490;-74
2022/10/28 05:12:19;;;;;;;27.23;8.63;;;16.90;89.40;;;;;;5033628;28;20048;-76
2022/10/28 05:14:45;;;;;;;24.23;8.93;;;16.90;89.30;;;;;;5033663;28;20028;-72
2022/10/28 05:17:10;;;;;;;27.73;8.90;;;17.00;89.30;;;;;;5033176;28;20022;-75
2022/10/28 05:19:36;;;;;;;34.55;8.18;;;17.00;89.40;;;;;;5033553;28;20128;-72
2022/10/28 05:22:02;;;;;;;23.17;8.05;;;17.00;89.00;;;;;;5033385;28;20042;-73
2022/10/28 05:24:28;;;;;;;25.80;9.27;;;17.00;89.10;;;;;;5033113;28;20028;-73
2022/10/28 05:26:53;;;;;;;28.20;8.65;;;16.90;89.70;;;;;;5033166;28;20109;-71
2022/10/28 05:29:19;;;;;;;34.10;8.52;;;16.90;89.10;;;;;;5033212;28;20037;-74
2022/10/28 05:31:45;;;;;;;26.58;8.38;;;17.00;89.30;;;;;;5032964;28;20317;-72
2022/10/28 05:34:11;;;;;;;25.23;9.00;;;16.90;89.00;;;;;;5033096;28;20037;-73
2022/10/28 05:36:37;;;;;;;35.40;10.80;;;16.90;89.00;;;;;;5032649;28;20386;-76
2022/10/28 05:39:04;;;;;;;25.77;8.30;;;17.00;89.10;;;;;;5032785;28;20129;-72
2022/10/28 05:41:30;;;;;;;22.02;8.18;;;17.00;89.10;;;;;;5028145;28;20037;-71
2022/10/28 05:43:55;;;;;;;30.25;7.88;;;17.00;89.00;;;;;;5012985;28;20065;-73
2022/10/28 05:46:21;;;;;;;24.95;8.90;;;17.00;89.20;;;;;;5012882;28;20062;-73
2022/10/28 05:48:48;;;;;;;23.52;8.02;;;17.00;89.20;;;;;;5017163;28;20014;-76
2022/10/28 05:51:13;;;;;;;22.85;8.55;;;17.00;89.10;;;;;;5023743;28;20036;-73
2022/10/28 05:53:40;;;;;;;24.23;8.90;;;17.00;89.00;;;;;;5032716;28;20029;-74
2022/10/28 05:56:07;;;;;;;30.65;8.75;;;17.00;88.90;;;;;;5031131;28;20022;-73
2022/10/28 05:58:33;;;;;;;28.98;8.75;;;17.00;88.90;;;;;;5012947;28;20046;-74
2022/10/28 06:00:59;;;;;;;28.98;9.13;;;17.00;88.80;;;;;;5013099;28;20061;-74
2022/10/28 06:03:25;;;;;;;24.90;8.52;;;17.00;88.70;;;;;;5018195;28;20052;-73
2022/10/28 06:05:51;;;;;;;30.33;9.15;;;16.90;88.60;;;;;;5012911;28;20358;-73
2022/10/28 06:08:17;;;;;;;32.30;9.43;;;16.90;88.70;;;;;;5012843;28;20018;-75
2022/10/28 06:10:50;;;;;;;29.50;8.75;;;17.00;88.80;;;;;;5015531;28;20108;-74
2022/10/28 06:13:16;;;;;;;26.70;9.35;;;17.00;88.50;;;;;;5012745;28;20061;-78
2022/10/28 06:15:42;;;;;;;32.60;9.93;;;17.00;88.40;;;;;;5028938;28;20056;-78
2022/10/28 06:18:07;;;;;;;28.45;9.32;;;17.00;88.70;;;;;;5034485;28;20033;-80
2022/10/28 06:20:33;;;;;;;31.67;10.85;;;17.00;88.50;;;;;;5035859;28;20124;-79
2022/10/28 06:22:59;;;;;;;33.50;9.52;;;17.00;88.40;;;;;;5032101;28;20037;-80
2022/10/28 06:25:26;;;;;;;27.00;9.25;;;17.10;88.50;;;;;;5035328;28;20033;-80
2022/10/28 06:27:56;;;;;;;38.03;13.15;;;17.10;88.00;;;;;;5021652;28;20087;-80
2022/10/28 06:30:22;;;;;;;40.83;18.67;;;17.20;88.10;;;;;;5015737;28;20057;-81
2022/10/28 06:32:48;;;;;;;32.63;10.35;;;17.20;88.00;;;;;;5015744;28;20459;-80
2022/10/28 06:35:14;;;;;;;36.70;8.02;;;17.40;87.90;;;;;;5023915;28;20053;-79
2022/10/28 06:37:40;;;;;;;24.52;8.13;;;17.40;87.70;;;;;;5033635;28;20466;-76
2022/10/28 06:40:06;;;;;;;24.98;9.90;;;17.50;87.50;;;;;;5016708;28;20030;-82
2022/10/28 06:42:32;;;;;;;25.98;7.85;;;17.50;87.40;;;;;;5018820;28;20030;-77
2022/10/28 06:44:58;;;;;;;32.47;9.18;;;17.60;87.10;;;;;;5016665;28;20460;-78
2022/10/28 06:47:23;;;;;;;33.55;8.65;;;17.70;87.00;;;;;;5014744;28;20048;-76
2022/10/28 06:49:49;;;;;;;25.02;8.65;;;17.80;86.70;;;;;;5016631;28;20097;-78
2022/10/28 06:52:15;;;;;;;21.60;8.02;;;17.90;86.40;;;;;;5034438;28;20034;-77
2022/10/28 06:54:42;;;;;;;39.08;9.13;;;17.90;86.30;;;;;;5036007;28;20029;-77
2022/10/28 06:57:11;;;;;;;21.35;8.63;;;18.10;86.30;;;;;;5033237;28;20047;-79
2022/10/28 06:59:37;;;;;;;38.47;9.10;;;18.10;86.10;;;;;;5031044;28;20049;-75
2022/10/28 07:02:03;;;;;;;28.10;8.73;;;18.20;85.60;;;;;;5035745;28;20021;-74
2022/10/28 07:04:28;;;;;;;30.20;9.38;;;18.30;85.70;;;;;;5035757;28;20025;-80
2022/10/28 07:06:58;;;;;;;26.88;9.63;;;18.40;85.60;;;;;;5036195;28;20339;-79
2022/10/28 07:09:23;;;;;;;27.15;9.13;;;18.50;85.20;;;;;;5032918;28;20349;-75
2022/10/28 07:11:49;;;;;;;34.10;10.13;;;18.60;84.90;;;;;;5020567;28;20026;-78
2022/10/28 07:14:15;;;;;;;31.38;8.90;;;18.60;84.70;;;;;;5016534;28;20105;-74
2022/10/28 07:16:41;;;;;;;27.77;9.45;;;18.70;84.70;;;;;;5014755;28;20191;-76
2022/10/28 07:19:08;;;;;;;35.45;9.43;;;18.80;84.20;;;;;;5024120;28;20526;-75
2022/10/28 07:21:34;;;;;;;23.83;9.13;;;18.80;84.10;;;;;;5023333;28;20030;-72
2022/10/28 07:24:00;;;;;;;24.17;8.38;;;18.90;83.90;;;;;;5021367;28;20026;-79
2022/10/28 07:26:26;;;;;;;26.52;8.93;;;19.00;83.30;;;;;;5017890;28;20029;-77
2022/10/28 07:28:52;;;;;;;30.58;8.60;;;19.00;83.60;;;;;;5015126;28;20018;-78
2022/10/28 07:31:18;;;;;;;33.72;8.63;;;19.00;83.30;;;;;;5015129;28;20359;-77
2022/10/28 07:33:44;;;;;;;34.05;8.43;;;19.00;83.00;;;;;;5014243;28;20444;-77
2022/10/28 07:36:10;;;;;;;30.45;8.82;;;19.00;82.70;;;;;;5014950;28;20121;-76
2022/10/28 07:38:35;;;;;;;23.20;8.73;;;19.00;82.90;;;;;;5023751;28;20036;-77
2022/10/28 07:41:06;;;;;;;21.92;8.75;;;19.00;82.60;;;;;;5034738;28;20026;-79
2022/10/28 07:43:37;;;;;;;25.23;9.05;;;19.00;82.70;;;;;;5033674;28;20052;-79
2022/10/28 07:46:05;;;;;;;28.63;9.52;;;19.00;82.40;;;;;;5027919;28;20065;-79
2022/10/28 07:48:31;;;;;;;26.08;8.95;;;19.00;82.40;;;;;;5029002;28;20463;-77
2022/10/28 07:51:03;;;;;;;35.20;10.45;;;19.00;82.30;;;;;;5034670;28;20029;-77
2022/10/28 07:53:29;;;;;;;31.05;9.50;;;19.00;82.40;;;;;;5028326;28;20037;-77
2022/10/28 07:55:59;;;;;;;29.42;8.70;;;19.00;82.50;;;;;;5025787;28;20436;-78
2022/10/28 07:58:25;;;;;;;27.38;8.70;;;19.00;81.90;;;;;;5023024;28;20769;-77
2022/10/28 08:00:51;;;;;;;37.03;8.77;;;19.00;81.80;;;;;;5036496;28;20441;-78
2022/10/28 08:03:17;;;;;;;30.67;9.15;;;19.00;81.80;;;;;;5033814;28;20017;-77
2022/10/28 08:05:43;;;;;;;29.00;8.93;;;19.00;81.80;;;;;;5018675;28;20026;-78
2022/10/28 08:08:09;;;;;;;33.90;9.82;;;19.00;81.40;;;;;;5029934;28;20327;-78
2022/10/28 08:10:35;;;;;;;25.45;8.73;;;19.10;81.60;;;;;;5032995;28;20026;-80
2022/10/28 08:13:01;;;;;;;34.50;9.55;;;19.10;81.30;;;;;;5028609;28;20034;-81
2022/10/28 08:15:27;;;;;;;29.48;8.73;;;19.10;81.20;;;;;;5024200;28;20029;-79
2022/10/28 08:17:54;;;;;;;31.05;8.13;;;19.10;80.60;;;;;;5031756;28;20025;-75
